Time;durP1;ratioP1;P1;durP2;ratioP2;P2;SDS_P1;SDS_P2;PMS_P1;PMS_P2;Temp;Humidity;BMP_temperature;BMP_pressure;BME280_temperature;BME280_humidity;BME280_pressure;Samples;Min_cycle;Max_cycle;Signal;HPM_P1;HPM_P2
2022/04/28 00:00:28;;;;;;;16.47;13.73;;;11.40;93.20;;;;;;5051131;28;20864;-52
2022/04/28 00:02:55;;;;;;;15.60;12.13;;;11.10;93.40;;;;;;5051464;28;20425;-52
2022/04/28 00:05:23;;;;;;;16.37;13.87;;;10.40;93.00;;;;;;5051327;28;20474;-52
2022/04/28 00:07:49;;;;;;;18.07;12.10;;;11.70;93.80;;;;;;5033549;28;20438;-52
2022/04/28 00:10:18;;;;;;;17.43;13.50;;;10.30;93.50;;;;;;5051070;28;20851;-52
2022/04/28 00:12:45;;;;;;;16.37;12.30;;;11.30;94.20;;;;;;5051364;28;20482;-52
2022/04/28 00:15:12;;;;;;;16.20;12.40;;;11.10;94.10;;;;;;5051486;28;20482;-52
2022/04/28 00:17:38;;;;;;;14.33;11.40;;;10.60;94.00;;;;;;5051291;28;20435;-52
2022/04/28 00:20:06;;;;;;;16.40;12.20;;;11.10;94.50;;;;;;5050822;28;20430;-51
2022/04/28 00:22:33;;;;;;;14.47;12.03;;;11.00;94.10;;;;;;5051327;28;20435;-52
2022/04/28 00:25:00;;;;;;;20.00;13.63;;;11.00;94.20;;;;;;5033322;28;20462;-52
2022/04/28 00:27:29;;;;;;;16.90;13.33;;;11.20;94.40;;;;;;5051223;28;20440;-51
2022/04/28 00:29:56;;;;;;;16.60;13.77;;;11.30;94.40;;;;;;5050895;28;20430;-52
2022/04/28 00:32:23;;;;;;;16.10;12.63;;;10.90;94.40;;;;;;5051538;28;20482;-52
2022/04/28 00:34:49;;;;;;;16.50;12.87;;;10.90;94.20;;;;;;5033084;28;20462;-52
2022/04/28 00:37:17;;;;;;;16.50;13.13;;;11.00;94.70;;;;;;5051084;28;20497;-52
2022/04/28 00:39:44;;;;;;;18.20;12.43;;;11.10;94.80;;;;;;5051005;28;20435;-52
2022/04/28 00:42:11;;;;;;;16.80;12.30;;;10.90;95.00;;;;;;5033149;28;20799;-52
2022/04/28 00:44:40;;;;;;;18.17;12.50;;;10.90;95.10;;;;;;5035218;28;20465;-52
2022/04/28 00:47:09;;;;;;;12.60;11.13;;;11.20;95.00;;;;;;5037010;28;20453;-52
2022/04/28 00:52:21;;;;;;;13.40;12.00;;;10.70;95.70;;;;;;5054783;28;21057;-52
2022/04/28 00:54:49;;;;;;;15.23;13.00;;;10.80;95.90;;;;;;5054679;28;20446;-52
2022/04/28 00:57:16;;;;;;;16.07;12.67;;;10.90;95.80;;;;;;5054652;28;20435;-51
2022/04/28 00:59:47;;;;;;;17.77;13.27;;;10.90;95.80;;;;;;5054184;28;20433;-52
2022/04/28 01:02:14;;;;;;;13.90;11.50;;;10.70;95.70;;;;;;5036530;28;20446;-52
2022/04/28 01:04:41;;;;;;;12.97;11.50;;;11.10;95.90;;;;;;5043655;28;20572;-51
2022/04/28 01:07:08;;;;;;;15.57;12.00;;;10.90;95.90;;;;;;5054448;28;20485;-51
2022/04/28 01:09:36;;;;;;;13.57;11.03;;;10.80;95.90;;;;;;5052656;28;20450;-51
2022/04/28 01:12:07;;;;;;;14.40;12.50;;;10.60;95.80;;;;;;5052954;28;20525;-51
2022/04/28 01:14:34;;;;;;;14.20;12.70;;;10.60;95.60;;;;;;5053047;28;20465;-51
2022/04/28 01:17:05;;;;;;;19.30;12.70;;;10.40;95.80;;;;;;5053029;28;20453;-52
2022/04/28 01:19:33;;;;;;;12.87;11.10;;;10.60;95.80;;;;;;5052646;28;20446;-52
2022/04/28 01:22:03;;;;;;;15.30;11.63;;;9.90;95.70;;;;;;5052940;28;20466;-52
2022/04/28 01:24:30;;;;;;;12.67;11.20;;;10.70;95.70;;;;;;5052902;28;20777;-52
2022/04/28 01:26:59;;;;;;;14.23;11.80;;;10.30;95.50;;;;;;5052885;28;20518;-52
2022/04/28 01:29:26;;;;;;;14.83;11.23;;;10.50;95.80;;;;;;5053843;28;20501;-52
2022/04/28 01:31:53;;;;;;;16.60;11.10;;;10.60;96.00;;;;;;5052706;28;20906;-52
2022/04/28 01:34:20;;;;;;;12.83;11.20;;;10.30;95.70;;;;;;5052640;28;20470;-54
2022/04/28 01:36:46;;;;;;;14.67;11.33;;;10.80;96.20;;;;;;5052610;28;20826;-51
2022/04/28 01:39:15;;;;;;;12.77;11.43;;;10.00;95.80;;;;;;5052279;28;20537;-52
2022/04/28 01:41:43;;;;;;;13.27;11.73;;;10.40;96.00;;;;;;5052465;28;20447;-52
2022/04/28 01:44:10;;;;;;;13.80;11.70;;;10.70;96.30;;;;;;5053755;28;20490;-52
2022/04/28 01:46:37;;;;;;;13.10;11.13;;;10.50;96.60;;;;;;5052406;28;20508;-52
2022/04/28 01:49:27;;;;;;;13.80;12.40;;;10.40;96.30;;;;;;5053412;28;20452;-52
2022/04/28 01:55:17;;;;;;;14.43;11.30;;;10.50;96.70;;;;;;5053359;28;20441;-52
2022/04/28 01:57:58;;;;;;;13.73;11.57;;;10.30;96.30;;;;;;5053602;28;20427;-52
2022/04/28 02:00:31;;;;;;;14.90;11.93;;;10.40;96.50;;;;;;5052017;28;20529;-51
2022/04/28 02:03:07;;;;;;;11.83;10.63;;;10.10;96.40;;;;;;5052115;28;20461;-52
2022/04/28 02:05:33;;;;;;;13.03;10.70;;;10.60;96.60;;;;;;5053468;28;20470;-51
2022/04/28 02:08:01;;;;;;;13.63;10.70;;;9.80;96.70;;;;;;5035638;28;21016;-51
2022/04/28 02:10:30;;;;;;;13.33;10.43;;;10.70;96.70;;;;;;5035057;28;20466;-51
2022/04/28 02:12:58;;;;;;;13.57;10.40;;;10.50;96.50;;;;;;5035381;28;20901;-51
2022/04/28 02:15:59;;;;;;;13.80;10.00;;;10.40;96.60;;;;;;5053125;28;20438;-52
2022/04/28 02:18:44;;;;;;;11.53;10.13;;;10.30;96.30;;;;;;5053102;28;20429;-52
2022/04/28 02:21:11;;;;;;;12.97;10.73;;;10.60;96.40;;;;;;5035425;28;20467;-52
2022/04/28 02:23:38;;;;;;;13.47;10.63;;;10.20;96.20;;;;;;5052815;28;20423;-52
2022/04/28 02:26:06;;;;;;;12.00;9.20;;;10.30;96.50;;;;;;5035167;28;20450;-52
2022/04/28 02:28:33;;;;;;;14.30;10.63;;;10.80;96.50;;;;;;5034640;28;20907;-53
2022/04/28 02:31:00;;;;;;;13.30;10.73;;;10.50;96.50;;;;;;5035042;28;20822;-52
2022/04/28 02:33:27;;;;;;;11.63;10.40;;;9.70;96.60;;;;;;5034881;28;20482;-52
2022/04/28 02:36:02;;;;;;;16.37;10.10;;;10.20;96.40;;;;;;5035002;28;20870;-52
2022/04/28 02:38:34;;;;;;;13.00;9.90;;;9.60;96.90;;;;;;5034561;28;20451;-52
2022/04/28 02:41:05;;;;;;;11.93;9.97;;;10.00;96.60;;;;;;5034948;28;20452;-52
2022/04/28 02:43:32;;;;;;;15.37;10.60;;;9.90;97.10;;;;;;5034780;28;20504;-52
2022/04/28 02:46:09;;;;;;;12.77;10.90;;;10.50;96.70;;;;;;5034829;28;20824;-52
2022/04/28 02:48:53;;;;;;;14.90;10.80;;;10.40;97.00;;;;;;5034326;28;20557;-52
2022/04/28 02:51:19;;;;;;;17.93;12.00;;;9.90;97.20;;;;;;5034738;28;20450;-53
2022/04/28 02:53:46;;;;;;;13.57;11.33;;;9.90;97.20;;;;;;5052367;28;20479;-52
2022/04/28 02:56:15;;;;;;;13.63;10.57;;;9.40;96.80;;;;;;5034766;28;20494;-50
2022/04/28 02:58:42;;;;;;;12.47;10.03;;;10.20;97.00;;;;;;5052151;28;20439;-51
2022/04/28 03:01:09;;;;;;;22.53;11.97;;;9.70;97.40;;;;;;5034395;28;20446;-51
2022/04/28 03:03:38;;;;;;;14.97;10.20;;;10.00;97.00;;;;;;5034248;28;20446;-51
2022/04/28 03:11:36;;;;;;;15.80;9.77;;;9.90;97.60;;;;;;5034288;28;20810;-51
2022/04/28 03:14:03;;;;;;;13.30;10.07;;;9.20;97.30;;;;;;5034235;28;20830;-52
2022/04/28 03:16:32;;;;;;;11.60;9.57;;;9.80;97.70;;;;;;5034216;28;20450;-52
2022/04/28 03:19:07;;;;;;;11.47;9.43;;;9.50;97.20;;;;;;5033926;28;20456;-52
2022/04/28 03:21:35;;;;;;;12.20;9.13;;;9.80;97.60;;;;;;5034347;28;20442;-53
2022/04/28 03:24:05;;;;;;;13.00;9.53;;;9.70;97.40;;;;;;5034428;28;21002;-52
2022/04/28 03:26:33;;;;;;;13.53;9.47;;;9.70;97.10;;;;;;5052160;28;20466;-53
2022/04/28 03:29:01;;;;;;;12.70;9.63;;;9.70;97.40;;;;;;5034222;28;20485;-52
2022/04/28 03:31:28;;;;;;;11.30;8.77;;;9.80;97.60;;;;;;5034283;28;20505;-52
2022/04/28 03:34:23;;;;;;;10.97;8.90;;;9.50;97.30;;;;;;5034261;28;20468;-53
2022/04/28 03:36:51;;;;;;;14.30;9.57;;;9.80;97.40;;;;;;5034413;28;20446;-52
2022/04/28 03:39:20;;;;;;;11.30;9.00;;;9.60;97.40;;;;;;5033997;28;20958;-52
2022/04/28 03:41:47;;;;;;;14.27;10.57;;;9.50;97.20;;;;;;5052183;28;20435;-52
2022/04/28 03:44:16;;;;;;;13.70;10.00;;;9.50;97.50;;;;;;5033975;28;20466;-54
2022/04/28 03:46:44;;;;;;;17.07;9.87;;;9.40;97.70;;;;;;5033860;28;20959;-52
2022/04/28 03:49:11;;;;;;;14.50;10.87;;;9.70;97.80;;;;;;5033517;28;20508;-52
2022/04/28 03:51:38;;;;;;;20.10;10.57;;;9.00;97.50;;;;;;5051876;28;20435;-52
2022/04/28 03:54:05;;;;;;;16.63;10.67;;;9.30;97.80;;;;;;5033531;28;20517;-53
2022/04/28 03:56:34;;;;;;;10.27;8.63;;;9.40;97.80;;;;;;5033568;28;20500;-52
2022/04/28 03:59:10;;;;;;;14.30;9.87;;;9.20;97.90;;;;;;5033238;28;20480;-52
2022/04/28 04:02:04;;;;;;;13.77;10.37;;;9.50;98.10;;;;;;5028119;28;20943;-53
2022/04/28 04:04:31;;;;;;;14.07;9.47;;;9.40;97.90;;;;;;5062377;22;21021;-50
2022/04/28 04:07:02;;;;;;;12.13;9.63;;;9.20;97.80;;;;;;5072574;28;20560;-49
2022/04/28 04:09:35;;;;;;;13.23;9.40;;;9.40;98.00;;;;;;5090177;28;20862;-49
2022/04/28 04:12:05;;;;;;;10.70;8.87;;;9.30;97.80;;;;;;5072098;28;20487;-48
2022/04/28 04:14:43;;;;;;;12.10;10.90;;;9.40;97.80;;;;;;5072032;28;20520;-49
2022/04/28 04:17:12;;;;;;;16.30;9.63;;;8.90;97.50;;;;;;5072018;28;20522;-49
2022/04/28 04:19:39;;;;;;;13.87;11.00;;;9.40;97.50;;;;;;5075674;28;20448;-49
2022/04/28 04:22:06;;;;;;;14.87;10.83;;;9.00;97.50;;;;;;5094273;28;20444;-50
2022/04/28 04:24:33;;;;;;;14.90;10.80;;;9.50;97.80;;;;;;5075683;28;21016;-48
2022/04/28 04:27:00;;;;;;;11.90;9.80;;;9.20;97.70;;;;;;5075888;28;20452;-49
2022/04/28 04:29:53;;;;;;;11.40;9.70;;;9.10;97.40;;;;;;5093929;28;20760;-49
2022/04/28 04:32:40;;;;;;;12.07;9.53;;;9.70;97.70;;;;;;5093961;28;20636;-48
2022/04/28 04:35:24;;;;;;;15.23;10.90;;;9.30;97.30;;;;;;5075841;28;20473;-48
2022/04/28 04:37:51;;;;;;;13.20;9.60;;;10.10;97.10;;;;;;5075749;28;20449;-48
2022/04/28 04:40:18;;;;;;;13.47;10.13;;;9.20;97.10;;;;;;5075243;28;20448;-48
2022/04/28 04:42:45;;;;;;;18.37;10.70;;;9.60;97.20;;;;;;5075375;28;20440;-50
2022/04/28 04:45:13;;;;;;;12.67;10.23;;;9.00;96.90;;;;;;5075085;28;20518;-49
2022/04/28 04:48:11;;;;;;;11.00;9.70;;;9.90;97.30;;;;;;5055688;28;20438;-48
2022/04/28 04:50:46;;;;;;;10.97;9.07;;;9.80;97.20;;;;;;5075136;28;20933;-49
2022/04/28 04:53:21;;;;;;;15.43;10.63;;;9.70;97.00;;;;;;5075680;28;20884;-49
2022/04/28 04:55:48;;;;;;;14.47;12.07;;;10.10;96.60;;;;;;5074822;28;20460;-49
2022/04/28 04:58:16;;;;;;;13.63;10.63;;;9.80;96.90;;;;;;5075342;28;20454;-49
2022/04/28 05:00:43;;;;;;;13.50;10.00;;;9.90;96.90;;;;;;5075229;28;20970;-49
2022/04/28 05:03:27;;;;;;;10.90;9.47;;;10.00;96.30;;;;;;5093539;28;20435;-49
2022/04/28 05:06:13;;;;;;;15.87;10.10;;;10.20;96.00;;;;;;5086029;28;20456;-49
2022/04/28 05:08:57;;;;;;;17.40;10.90;;;10.10;96.10;;;;;;5075101;28;20456;-49
2022/04/28 05:11:24;;;;;;;12.50;9.33;;;9.70;96.30;;;;;;5075287;28;20448;-49
2022/04/28 05:14:17;;;;;;;14.10;9.40;;;10.10;96.00;;;;;;5077163;28;20481;-49
2022/04/28 05:16:43;;;;;;;14.43;9.80;;;9.90;96.20;;;;;;5074995;28;20468;-49
2022/04/28 05:19:28;;;;;;;13.60;10.20;;;10.00;95.60;;;;;;5074701;28;20452;-49
2022/04/28 05:22:15;;;;;;;18.93;9.93;;;10.30;95.50;;;;;;5092712;28;20453;-49
2022/04/28 05:25:00;;;;;;;18.97;10.33;;;10.30;95.10;;;;;;5093501;28;20436;-49
2022/04/28 05:27:46;;;;;;;18.23;9.37;;;10.70;95.10;;;;;;5093214;28;20428;-49
2022/04/28 05:30:31;;;;;;;12.83;10.00;;;10.00;94.40;;;;;;5091777;28;20586;-49
2022/04/28 05:33:16;;;;;;;15.40;9.83;;;11.10;94.70;;;;;;5093067;28;20468;-49
2022/04/28 05:36:09;;;;;;;14.90;10.40;;;10.60;94.50;;;;;;5074592;28;20476;-51
2022/04/28 05:38:36;;;;;;;13.43;9.47;;;10.70;94.20;;;;;;5092331;28;20842;-50
2022/04/28 05:41:03;;;;;;;12.60;9.20;;;11.00;94.00;;;;;;5074287;28;20444;-49
2022/04/28 05:46:15;;;;;;;13.00;8.50;;;11.10;93.10;;;;;;5074131;28;20447;-49
2022/04/28 05:48:42;;;;;;;10.50;8.90;;;11.00;93.00;;;;;;5074024;28;20884;-49
2022/04/28 05:51:12;;;;;;;15.40;9.50;;;10.90;93.00;;;;;;5074026;28;20621;-50
2022/04/28 05:53:39;;;;;;;15.47;9.33;;;11.00;93.00;;;;;;5074006;28;20550;-49
2022/04/28 05:56:07;;;;;;;15.83;9.73;;;11.20;93.00;;;;;;5074315;28;20959;-49
2022/04/28 05:58:43;;;;;;;14.40;9.30;;;11.00;93.10;;;;;;5074043;28;20514;-49
2022/04/28 06:01:30;;;;;;;16.63;9.63;;;11.30;92.90;;;;;;5092073;28;20601;-49
2022/04/28 06:04:00;;;;;;;11.70;9.40;;;11.30;92.80;;;;;;5073806;28;21011;-48
2022/04/28 06:06:28;;;;;;;10.50;9.40;;;11.30;92.50;;;;;;5073958;28;20477;-50
2022/04/28 06:08:58;;;;;;;11.63;9.50;;;11.60;92.60;;;;;;5073073;28;20738;-48
2022/04/28 06:11:25;;;;;;;12.20;9.17;;;11.60;92.60;;;;;;5073657;28;20521;-50
2022/04/28 06:13:52;;;;;;;14.00;9.93;;;11.60;92.40;;;;;;5073612;28;20477;-49
2022/04/28 06:16:36;;;;;;;18.83;10.23;;;11.60;92.40;;;;;;5092329;28;20574;-50
2022/04/28 06:19:12;;;;;;;9.87;8.87;;;11.80;92.20;;;;;;5073252;28;20449;-49
2022/04/28 06:21:59;;;;;;;15.90;10.47;;;12.10;92.30;;;;;;5091864;28;20475;-50
2022/04/28 06:24:26;;;;;;;15.07;9.90;;;11.70;92.10;;;;;;5092231;28;20499;-49
2022/04/28 06:26:55;;;;;;;13.17;10.30;;;11.90;92.10;;;;;;5073637;28;20477;-50
2022/04/28 06:29:21;;;;;;;17.00;10.47;;;11.90;92.20;;;;;;5072880;28;20490;-50
2022/04/28 06:31:48;;;;;;;18.50;9.70;;;12.20;92.40;;;;;;5073820;28;20443;-49
2022/04/28 06:34:35;;;;;;;17.20;10.97;;;12.20;92.40;;;;;;5091333;28;20533;-49
2022/04/28 06:37:04;;;;;;;13.53;9.33;;;12.10;92.20;;;;;;5073163;28;20601;-49
2022/04/28 06:39:31;;;;;;;17.57;10.90;;;12.30;92.30;;;;;;5072966;28;20520;-49
2022/04/28 06:41:58;;;;;;;11.83;10.63;;;12.50;92.50;;;;;;5072938;28;20443;-48
2022/04/28 06:44:44;;;;;;;12.77;11.20;;;12.50;92.40;;;;;;5091061;28;20458;-50
2022/04/28 06:47:40;;;;;;;20.20;11.17;;;12.40;92.30;;;;;;5091549;28;20447;-48
2022/04/28 06:50:26;;;;;;;13.37;10.87;;;12.60;92.60;;;;;;5091534;28;20516;-49
2022/04/28 06:53:16;;;;;;;26.50;11.23;;;12.70;92.50;;;;;;5090922;28;20488;-50
2022/04/28 06:55:47;;;;;;;17.73;10.80;;;12.80;92.40;;;;;;5073066;28;20482;-48
2022/04/28 06:58:13;;;;;;;15.70;10.23;;;13.10;92.50;;;;;;5072694;28;20950;-49
2022/04/28 07:00:43;;;;;;;15.13;10.83;;;12.70;92.00;;;;;;5072638;28;20455;-49
2022/04/28 07:03:10;;;;;;;14.27;11.43;;;13.00;92.30;;;;;;5073092;28;20447;-51
2022/04/28 07:05:38;;;;;;;13.27;10.20;;;13.60;92.50;;;;;;5072548;28;20479;-49
2022/04/28 07:08:06;;;;;;;13.83;10.40;;;13.10;92.40;;;;;;5072749;28;20481;-50
2022/04/28 07:10:40;;;;;;;20.60;9.77;;;13.30;91.50;;;;;;5072154;28;20448;-50
2022/04/28 07:13:07;;;;;;;12.70;9.27;;;13.50;91.30;;;;;;5073026;28;20467;-51
2022/04/28 07:15:52;;;;;;;13.47;8.47;;;13.50;91.20;;;;;;5091204;28;20458;-51
2022/04/28 07:18:37;;;;;;;14.30;9.50;;;13.10;90.70;;;;;;5090906;28;20454;-49
2022/04/28 07:21:04;;;;;;;10.50;8.30;;;13.70;90.80;;;;;;5072771;28;20532;-50
2022/04/28 07:23:31;;;;;;;14.67;9.23;;;13.80;90.60;;;;;;5072655;28;20447;-49
2022/04/28 07:25:59;;;;;;;12.07;7.30;;;14.20;90.70;;;;;;5072729;28;20503;-49
2022/04/28 07:28:26;;;;;;;9.60;7.40;;;13.80;89.60;;;;;;5072266;28;20515;-49
2022/04/28 07:31:13;;;;;;;12.13;7.83;;;14.10;89.50;;;;;;5090450;28;20473;-50
2022/04/28 07:33:59;;;;;;;10.23;8.80;;;14.40;89.70;;;;;;5091587;28;20528;-47
2022/04/28 07:36:40;;;;;;;14.73;8.47;;;14.10;89.20;;;;;;5091187;28;20443;-49
2022/04/28 07:39:26;;;;;;;13.43;6.90;;;13.70;88.60;;;;;;5090359;28;20493;-49
2022/04/28 07:42:06;;;;;;;8.37;6.50;;;14.10;88.80;;;;;;5090929;28;20460;-48
2022/04/28 07:44:36;;;;;;;13.70;8.70;;;14.20;88.90;;;;;;5072559;28;20467;-48
2022/04/28 07:47:04;;;;;;;11.07;7.63;;;14.10;88.70;;;;;;5072413;28;21016;-47
2022/04/28 07:49:36;;;;;;;11.07;6.60;;;14.20;88.80;;;;;;5072248;28;21035;-49
2022/04/28 07:52:05;;;;;;;10.73;6.20;;;14.10;88.20;;;;;;5071927;28;20959;-47
2022/04/28 07:54:31;;;;;;;10.10;6.60;;;14.10;87.40;;;;;;5072222;28;20488;-47
2022/04/28 07:56:58;;;;;;;17.40;7.13;;;14.10;87.30;;;;;;5072178;28;20573;-48
2022/04/28 07:59:29;;;;;;;9.23;6.50;;;14.70;88.00;;;;;;5072344;28;20508;-48
2022/04/28 08:02:04;;;;;;;11.90;7.03;;;14.40;88.00;;;;;;5072552;28;20471;-47
2022/04/28 08:04:32;;;;;;;13.40;6.70;;;14.10;87.90;;;;;;5072350;28;20888;-48
2022/04/28 08:07:00;;;;;;;9.40;6.17;;;13.80;87.80;;;;;;5072688;28;20479;-48
2022/04/28 08:09:28;;;;;;;24.17;7.13;;;13.70;88.00;;;;;;5071828;28;20453;-48
2022/04/28 08:11:55;;;;;;;10.10;6.17;;;13.90;88.70;;;;;;5072486;28;20607;-48
2022/04/28 08:14:23;;;;;;;13.67;7.70;;;13.70;88.40;;;;;;5072407;28;20517;-47
2022/04/28 08:16:52;;;;;;;13.60;6.53;;;13.10;87.80;;;;;;5072013;28;20448;-47
2022/04/28 08:19:20;;;;;;;16.20;8.50;;;13.70;88.50;;;;;;5072034;28;20539;-47
2022/04/28 08:21:53;;;;;;;12.27;7.03;;;13.60;88.40;;;;;;5072455;28;20450;-47
2022/04/28 08:24:20;;;;;;;11.77;7.07;;;13.50;87.90;;;;;;5072935;28;20507;-47
2022/04/28 08:26:48;;;;;;;12.00;7.53;;;13.70;87.50;;;;;;5072222;28;20473;-47
2022/04/28 08:29:15;;;;;;;13.53;9.30;;;13.90;87.40;;;;;;5071428;28;20457;-47
2022/04/28 08:31:46;;;;;;;13.30;7.10;;;13.60;87.40;;;;;;5071858;28;20475;-46
2022/04/28 08:34:19;;;;;;;11.87;7.03;;;13.80;87.20;;;;;;5071939;28;21086;-48
2022/04/28 08:36:46;;;;;;;13.27;7.67;;;13.90;87.30;;;;;;5072316;28;20826;-47
2022/04/28 08:39:13;;;;;;;11.40;7.57;;;13.70;86.80;;;;;;5069848;28;20486;-47
2022/04/28 08:41:44;;;;;;;10.90;7.47;;;13.70;86.70;;;;;;5072258;28;20807;-46
2022/04/28 08:44:21;;;;;;;13.67;7.80;;;14.10;86.60;;;;;;5070352;28;20464;-47
2022/04/28 08:46:53;;;;;;;13.63;8.80;;;13.90;86.00;;;;;;5057895;28;20450;-46
2022/04/28 08:49:26;;;;;;;12.15;7.85;;;14.00;85.70;;;;;;5070837;28;20501;-46
2022/04/28 08:52:12;;;;;;;13.35;8.48;;;14.70;85.80;;;;;;5070679;28;20452;-47
2022/04/28 08:54:40;;;;;;;11.87;6.90;;;15.20;83.50;;;;;;5071631;28;20323;-46
2022/04/28 08:57:07;;;;;;;12.77;8.17;;;14.70;83.20;;;;;;5071405;28;20449;-46
2022/04/28 08:59:34;;;;;;;9.70;7.53;;;15.10;83.20;;;;;;5071295;28;20491;-46
2022/04/28 09:02:01;;;;;;;12.20;7.23;;;14.70;81.40;;;;;;5071575;28;20470;-47
2022/04/28 09:04:48;;;;;;;9.57;7.13;;;14.40;80.50;;;;;;5090730;28;21001;-47
2022/04/28 09:07:15;;;;;;;12.30;8.77;;;14.70;80.60;;;;;;5092680;28;20444;-47
2022/04/28 09:09:42;;;;;;;11.50;8.97;;;15.20;78.60;;;;;;5094496;28;20658;-47
2022/04/28 09:12:27;;;;;;;8.87;7.80;;;14.90;77.70;;;;;;5094791;28;20510;-47
2022/04/28 09:15:14;;;;;;;13.00;8.33;;;15.10;78.40;;;;;;5094391;28;20890;-46
2022/04/28 09:17:50;;;;;;;12.67;7.10;;;15.30;78.40;;;;;;5075965;28;20441;-47
2022/04/28 09:20:23;;;;;;;12.83;7.83;;;14.90;77.80;;;;;;5094144;28;20437;-46
2022/04/28 09:22:53;;;;;;;8.93;7.20;;;15.50;78.60;;;;;;5075331;28;20548;-46
2022/04/28 09:25:22;;;;;;;10.43;7.27;;;15.20;78.20;;;;;;5075199;28;20465;-47
2022/04/28 09:27:52;;;;;;;16.05;8.00;;;15.30;77.70;;;;;;5075165;28;20457;-47
2022/04/28 09:30:22;;;;;;;13.98;8.00;;;15.70;77.60;;;;;;5074706;28;20540;-46
2022/04/28 09:33:07;;;;;;;17.27;8.13;;;15.80;75.60;;;;;;5076654;28;20206;-46
2022/04/28 09:35:57;;;;;;;10.40;7.60;;;16.30;75.80;;;;;;5076064;28;20615;-47
2022/04/28 09:38:31;;;;;;;13.97;7.80;;;16.10;75.30;;;;;;5075395;28;20950;-46
2022/04/28 09:43:43;;;;;;;10.03;8.30;;;16.30;71.60;;;;;;5076015;28;20363;-47
2022/04/28 09:46:13;;;;;;;11.07;7.97;;;16.70;72.10;;;;;;5075113;28;20449;-47
2022/04/28 09:48:43;;;;;;;9.10;7.50;;;16.70;72.20;;;;;;5075042;28;20450;-46
2022/04/28 09:51:13;;;;;;;10.90;7.47;;;16.70;70.90;;;;;;5074802;28;20500;-46
2022/04/28 09:54:07;;;;;;;15.43;7.50;;;16.80;70.60;;;;;;5074786;28;20492;-47
2022/04/28 09:56:44;;;;;;;12.63;7.83;;;16.60;70.10;;;;;;5074293;28;20514;-48
2022/04/28 09:59:21;;;;;;;12.93;8.27;;;16.90;70.80;;;;;;5074799;28;20457;-46
2022/04/28 10:01:49;;;;;;;16.77;7.63;;;16.60;69.80;;;;;;5074201;28;20861;-46
2022/04/28 10:04:16;;;;;;;9.27;6.60;;;16.60;69.80;;;;;;5117177;22;20604;-52
2022/04/28 10:07:06;;;;;;;13.80;6.53;;;16.90;69.70;;;;;;5051955;28;20438;-52
2022/04/28 10:09:35;;;;;;;9.80;6.50;;;16.40;69.30;;;;;;5034662;28;20446;-53
2022/04/28 10:12:08;;;;;;;9.57;5.90;;;16.40;68.90;;;;;;5034614;28;20475;-52
2022/04/28 10:14:51;;;;;;;9.00;6.80;;;16.40;69.00;;;;;;5034713;28;21068;-52
2022/04/28 10:17:23;;;;;;;13.27;7.00;;;16.60;68.80;;;;;;5034039;28;20446;-52
2022/04/28 10:19:56;;;;;;;9.70;6.23;;;16.90;68.70;;;;;;5052376;28;20430;-52
2022/04/28 10:22:44;;;;;;;7.83;6.30;;;16.20;67.80;;;;;;5034228;28;20473;-52
2022/04/28 10:34:10;;;;;;;11.53;6.40;;;16.80;65.00;;;;;;5052143;28;20890;-53
2022/04/28 10:36:52;;;;;;;16.03;7.57;;;16.90;65.20;;;;;;5052351;28;20963;-53
2022/04/28 10:39:38;;;;;;;9.43;6.80;;;16.60;65.00;;;;;;5052136;28;20438;-51
2022/04/28 10:42:15;;;;;;;10.40;7.70;;;17.00;65.70;;;;;;5052129;28;20447;-51
2022/04/28 10:44:54;;;;;;;9.40;6.87;;;16.70;65.80;;;;;;5050939;28;20470;-52
2022/04/28 10:47:30;;;;;;;8.53;6.63;;;16.30;65.00;;;;;;5051923;28;20488;-51
2022/04/28 10:49:57;;;;;;;8.40;6.60;;;16.60;65.10;;;;;;5051559;28;20957;-52
2022/04/28 10:52:25;;;;;;;10.10;6.20;;;16.50;64.70;;;;;;5051942;28;20462;-53
2022/04/28 10:54:54;;;;;;;8.80;6.40;;;16.80;64.10;;;;;;5052019;28;20487;-52
2022/04/28 10:57:30;;;;;;;7.53;6.13;;;17.00;63.80;;;;;;5051590;28;20431;-52
2022/04/28 10:59:57;;;;;;;10.73;6.70;;;17.50;63.20;;;;;;5051193;28;20433;-54
2022/04/28 11:02:44;;;;;;;11.10;6.43;;;16.80;62.20;;;;;;5051411;28;20432;-52
2022/04/28 11:05:35;;;;;;;7.70;6.03;;;17.20;60.90;;;;;;5033731;28;20538;-52
2022/04/28 11:08:01;;;;;;;7.30;5.90;;;17.30;61.60;;;;;;5051730;28;20456;-51
2022/04/28 11:10:30;;;;;;;10.93;6.17;;;16.80;61.30;;;;;;5051687;28;20456;-51
2022/04/28 11:12:57;;;;;;;9.80;5.57;;;17.30;61.90;;;;;;5052081;28;20474;-51
2022/04/28 11:15:25;;;;;;;7.32;5.53;;;17.20;61.30;;;;;;5033321;28;20790;-49
2022/04/28 11:17:52;;;;;;;13.03;5.10;;;17.90;61.20;;;;;;5051438;28;20285;-50
2022/04/28 11:20:21;;;;;;;12.80;5.80;;;17.70;60.20;;;;;;5050946;28;20436;-51
2022/04/28 11:22:59;;;;;;;10.83;5.40;;;17.60;59.70;;;;;;5033267;28;20445;-50
2022/04/28 11:25:26;;;;;;;7.53;5.80;;;17.90;60.30;;;;;;5050864;28;20453;-51
2022/04/28 11:27:57;;;;;;;7.83;5.17;;;17.80;60.10;;;;;;5033662;28;20446;-52
2022/04/28 11:30:25;;;;;;;8.30;5.47;;;17.40;59.70;;;;;;5033030;28;20812;-50
2022/04/28 11:32:57;;;;;;;11.30;6.73;;;17.50;60.00;;;;;;5050898;28;20441;-50
2022/04/28 11:35:29;;;;;;;11.30;6.70;;;17.60;60.30;;;;;;5051258;28;20535;-50
2022/04/28 11:37:56;;;;;;;13.47;5.67;;;17.50;60.20;;;;;;5051053;28;20448;-50
2022/04/28 11:40:24;;;;;;;10.00;5.13;;;17.40;60.30;;;;;;5050100;28;20443;-50
2022/04/28 11:42:58;;;;;;;9.30;6.07;;;17.30;59.90;;;;;;5050934;28;20456;-50
2022/04/28 11:45:25;;;;;;;7.10;5.63;;;17.80;60.50;;;;;;5051127;28;20830;-49
2022/04/28 11:47:53;;;;;;;11.73;5.80;;;17.70;60.50;;;;;;5050890;28;20448;-50
2022/04/28 11:50:21;;;;;;;10.83;6.27;;;17.50;59.60;;;;;;5050631;28;20509;-49
2022/04/28 11:52:59;;;;;;;8.90;5.77;;;17.70;59.80;;;;;;5051199;28;20433;-48
2022/04/28 11:55:27;;;;;;;12.90;5.87;;;17.50;59.10;;;;;;5051024;28;20483;-50
2022/04/28 11:57:54;;;;;;;8.83;5.07;;;17.50;59.10;;;;;;5050917;28;20429;-50
2022/04/28 12:00:25;;;;;;;9.47;4.87;;;18.10;59.40;;;;;;5050472;28;20793;-50
2022/04/28 12:02:53;;;;;;;4.53;3.93;;;17.50;58.30;;;;;;5050542;28;20421;-52
2022/04/28 12:05:22;;;;;;;6.70;4.80;;;17.70;57.80;;;;;;5049584;28;20491;-50
2022/04/28 12:07:52;;;;;;;10.70;4.80;;;17.70;57.50;;;;;;5049966;28;20517;-50
2022/04/28 12:15:59;;;;;;;12.67;5.03;;;18.00;57.90;;;;;;5050931;28;20488;-50
2022/04/28 12:21:17;;;;;;;6.83;5.00;;;18.20;57.80;;;;;;5050558;28;20492;-52
2022/04/28 12:23:47;;;;;;;9.83;6.57;;;17.90;57.40;;;;;;5050489;28;20933;-51
2022/04/28 12:26:14;;;;;;;13.30;10.60;;;17.90;57.60;;;;;;5048810;28;20536;-52
2022/04/28 12:28:43;;;;;;;6.90;5.07;;;18.00;57.90;;;;;;5050354;28;20428;-50
2022/04/28 12:31:12;;;;;;;6.73;4.60;;;18.00;58.00;;;;;;5050981;28;20530;-49
2022/04/28 12:33:40;;;;;;;7.40;5.20;;;17.40;57.70;;;;;;5050717;28;20513;-50
2022/04/28 12:36:11;;;;;;;7.40;4.33;;;17.50;58.10;;;;;;5050290;28;20499;-50
2022/04/28 12:38:44;;;;;;;8.23;5.60;;;17.50;58.40;;;;;;5050489;28;20434;-50
2022/04/28 12:41:15;;;;;;;11.87;5.90;;;17.20;58.30;;;;;;5054257;28;20486;-52
2022/04/28 12:43:48;;;;;;;7.77;4.43;;;17.30;58.30;;;;;;5054499;28;20624;-52
2022/04/28 12:46:20;;;;;;;9.30;4.40;;;17.00;57.90;;;;;;5054331;28;20491;-49
2022/04/28 12:48:54;;;;;;;6.63;4.00;;;17.20;57.20;;;;;;5053598;28;20432;-50
2022/04/28 12:51:22;;;;;;;8.30;4.50;;;17.40;56.70;;;;;;5054375;28;20446;-51
2022/04/28 12:53:50;;;;;;;8.67;4.83;;;17.70;57.10;;;;;;5054200;28;20560;-51
2022/04/28 12:56:26;;;;;;;8.50;5.13;;;17.60;56.90;;;;;;5054371;28;20491;-51
2022/04/28 12:58:56;;;;;;;5.93;4.30;;;17.00;56.20;;;;;;5053485;28;20763;-50
2022/04/28 13:01:25;;;;;;;7.33;4.07;;;18.00;56.50;;;;;;5053859;28;20523;-51
2022/04/28 13:03:56;;;;;;;7.93;4.97;;;17.10;55.60;;;;;;5053529;28;20436;-50
2022/04/28 13:06:25;;;;;;;6.17;4.30;;;17.50;56.30;;;;;;5053785;28;20467;-52
2022/04/28 13:08:52;;;;;;;12.33;4.30;;;17.00;56.20;;;;;;5053733;28;21081;-51
2022/04/28 13:11:21;;;;;;;6.40;4.50;;;17.30;56.70;;;;;;5053275;28;20443;-51
2022/04/28 13:13:48;;;;;;;6.23;5.10;;;17.10;56.80;;;;;;5053605;28;20879;-49
2022/04/28 13:16:15;;;;;;;6.87;4.80;;;17.10;56.90;;;;;;5053677;28;20502;-50
2022/04/28 13:18:43;;;;;;;7.27;3.73;;;17.20;57.00;;;;;;5053667;28;20440;-51
2022/04/28 13:21:11;;;;;;;7.33;4.47;;;17.00;57.10;;;;;;5035195;28;20904;-50
2022/04/28 13:23:38;;;;;;;8.87;5.30;;;16.90;57.10;;;;;;5053833;28;20846;-51
2022/04/28 13:26:05;;;;;;;7.60;4.50;;;17.10;57.20;;;;;;5053438;28;20459;-50
2022/04/28 13:28:31;;;;;;;6.20;5.60;;;17.10;56.90;;;;;;5052846;28;20936;-50
2022/04/28 13:30:58;;;;;;;13.37;5.50;;;17.00;56.80;;;;;;5053106;28;20460;-50
2022/04/28 13:33:24;;;;;;;7.20;4.60;;;17.00;56.90;;;;;;5052857;28;20437;-50
2022/04/28 13:35:53;;;;;;;7.75;5.40;;;17.00;56.70;;;;;;5052274;28;20448;-49